Time,TemperatureF,DewpointF,PressureIn,WindDirection,WindDirectionDegrees,WindSpeedMPH,WindSpeedGustMPH,Humidity,HourlyPrecipIn,Conditions,Clouds,dailyrainin,SoftwareType,DateUTC
2013-01-13 00:00:00,64.8,62.6,30.02,South,172,2.5,11.5,92,0.00,,,0.00,Meteorologica,2013-01-13 05:00:00,
2013-01-13 00:01:00,64.7,62.4,30.02,South,191,3.2,11.5,92,0.00,,,0.00,Meteorologica,2013-01-13 05:01:00,
2013-01-13 00:03:00,64.8,62.4,30.01,South,176,3.1,11.5,92,0.00,,,0.00,Meteorologica,2013-01-13 05:03:00,
2013-01-13 00:08:00,64.7,62.2,30.01,SSE,168,3.0,8.8,91,0.00,,,0.00,Meteorologica,2013-01-13 05:08:00,
2013-01-13 00:13:00,64.8,62.3,30.01,SE,138,4.6,7.2,91,0.00,,,0.00,Meteorologica,2013-01-13 05:13:00,
2013-01-13 00:18:00,64.8,62.1,30.01,SSW,192,5.0,8.4,91,0.00,,,0.00,Meteorologica,2013-01-13 05:18:00,
2013-01-13 00:23:00,64.9,62.3,30.01,South,184,4.5,9.9,91,0.00,,,0.00,Meteorologica,2013-01-13 05:23:00,
2013-01-13 00:28:00,64.9,62.2,30.01,South,182,4.7,10.8,90,0.00,,,0.00,Meteorologica,2013-01-13 05:28:00,
2013-01-13 00:33:00,65.0,62.3,30.02,South,180,5.2,8.0,91,0.00,,,0.00,Meteorologica,2013-01-13 05:33:00,
2013-01-13 00:38:00,64.8,62.1,30.02,SSW,196,4.7,9.5,90,0.00,,,0.00,Meteorologica,2013-01-13 05:38:00,
2013-01-13 00:43:00,64.9,62.4,30.02,South,183,4.3,8.1,91,0.00,,,0.00,Meteorologica,2013-01-13 05:43:00,
2013-01-13 00:48:00,64.9,62.5,30.02,South,190,3.3,7.5,91,0.00,,,0.00,Meteorologica,2013-01-13 05:48:00,
2013-01-13 00:53:00,64.7,62.4,30.01,SSW,198,6.9,10.4,92,0.00,,,0.00,Meteorologica,2013-01-13 05:53:00,
2013-01-13 00:58:00,64.6,62.3,30.01,SSW,194,6.2,9.5,92,0.00,,,0.00,Meteorologica,2013-01-13 05:58:00,
2013-01-13 01:04:00,64.5,62.4,30.01,SSW,193,5.8,10.8,93,0.00,,,0.00,Meteorologica,2013-01-13 06:04:00,
2013-01-13 01:09:00,64.4,62.4,30.01,South,191,3.6,12.5,93,0.00,,,0.00,Meteorologica,2013-01-13 06:09:00,
2013-01-13 01:13:00,64.2,62.3,30.01,SW,216,3.2,7.9,93,0.00,,,0.00,Meteorologica,2013-01-13 06:13:00,
2013-01-13 01:18:00,64.1,62.5,30.02,South,183,5.6,8.1,94,0.00,,,0.00,Meteorologica,2013-01-13 06:18:00,
2013-01-13 01:23:00,64.2,62.8,30.02,SSW,197,5.3,8.5,95,0.00,,,0.00,Meteorologica,2013-01-13 06:23:00,
2013-01-13 01:28:00,64.0,62.7,30.02,SSE,161,5.3,10.0,95,0.00,,,0.00,Meteorologica,2013-01-13 06:28:00,
2013-01-13 01:34:00,63.9,62.7,30.01,SSW,205,4.6,10.5,96,0.00,,,0.00,Meteorologica,2013-01-13 06:34:00,
2013-01-13 01:39:00,64.0,62.8,30.02,SSW,199,3.5,13.8,96,0.00,,,0.00,Meteorologica,2013-01-13 06:39:00,
2013-01-13 01:44:00,63.9,62.7,30.01,South,174,6.0,9.8,96,0.00,,,0.00,Meteorologica,2013-01-13 06:44:00,
2013-01-13 01:49:00,64.0,62.9,30.01,South,189,3.9,8.6,96,0.00,,,0.00,Meteorologica,2013-01-13 06:49:00,
2013-01-13 01:54:00,64.0,62.9,30.01,SSW,206,3.5,10.4,96,0.00,,,0.00,Meteorologica,2013-01-13 06:54:00,
2013-01-13 01:59:00,63.9,63.0,30.01,SSW,202,6.1,8.7,96,0.00,,,0.00,Meteorologica,2013-01-13 06:59:00,
2013-01-13 02:04:00,63.8,63.0,30.02,SSW,210,3.6,10.9,97,0.00,,,0.00,Meteorologica,2013-01-13 07:04:00,
2013-01-13 02:09:00,63.8,63.1,30.01,South,181,3.7,8.6,97,0.00,,,0.00,Meteorologica,2013-01-13 07:09:00,
2013-01-13 02:14:00,63.8,63.1,30.01,SSW,198,2.8,7.3,97,0.00,,,0.00,Meteorologica,2013-01-13 07:14:00,
2013-01-13 02:19:00,63.8,63.2,30.01,SSW,197,3.5,6.7,97,0.00,,,0.00,Meteorologica,2013-01-13 07:19:00,
2013-01-13 02:24:00,63.7,63.2,30.01,South,184,3.2,6.0,98,0.00,,,0.00,Meteorologica,2013-01-13 07:24:00,
2013-01-13 02:29:00,63.7,63.3,30.01,SSW,208,2.7,8.4,98,0.00,,,0.00,Meteorologica,2013-01-13 07:29:00,
2013-01-13 02:34:00,63.5,63.3,30.01,SSW,198,4.1,7.3,99,0.00,,,0.00,Meteorologica,2013-01-13 07:34:00,
2013-01-13 02:39:00,63.5,63.5,30.01,SSE,168,2.0,7.1,99,0.00,,,0.00,Meteorologica,2013-01-13 07:39:00,
2013-01-13 02:44:00,63.2,63.2,30.01,South,191,2.3,7.1,100,0.00,,,0.00,Meteorologica,2013-01-13 07:44:00,
2013-01-13 02:49:00,63.0,63.0,30.01,South,188,3.9,6.1,100,0.00,,,0.00,Meteorologica,2013-01-13 07:49:00,
2013-01-13 02:54:00,63.0,63.0,30.01,SSE,165,2.9,8.2,100,0.00,,,0.00,Meteorologica,2013-01-13 07:54:00,
2013-01-13 02:59:00,62.9,62.9,30.01,SSW,211,3.8,10.3,100,0.00,,,0.00,Meteorologica,2013-01-13 07:59:00,
2013-01-13 03:04:00,62.9,62.9,30.01,SSW,199,4.1,7.1,100,0.00,,,0.00,Meteorologica,2013-01-13 08:04:00,
2013-01-13 03:09:00,62.8,62.8,30.01,SSE,167,3.5,6.8,100,0.00,,,0.00,Meteorologica,2013-01-13 08:09:00,
2013-01-13 03:14:00,62.9,62.9,30.01,South,181,2.4,10.0,100,0.00,,,0.00,Meteorologica,2013-01-13 08:14:00,
2013-01-13 03:19:00,63.0,63.0,30.01,South,183,4.0,8.7,100,0.00,,,0.00,Meteorologica,2013-01-13 08:19:00,
2013-01-13 03:24:00,63.0,63.0,30.01,South,175,3.9,7.8,100,0.00,,,0.00,Meteorologica,2013-01-13 08:24:00,
2013-01-13 03:29:00,63.0,63.0,30.00,ESE,114,3.4,7.9,100,0.00,,,0.00,Meteorologica,2013-01-13 08:29:00,
2013-01-13 03:34:00,63.0,63.0,30.00,SE,145,3.4,7.3,100,0.00,,,0.00,Meteorologica,2013-01-13 08:34:00,
2013-01-13 03:39:00,63.0,63.0,30.00,South,173,3.7,5.3,100,0.00,,,0.00,Meteorologica,2013-01-13 08:39:00,
2013-01-13 03:44:00,63.1,63.1,30.00,SSW,211,2.7,10.8,100,0.00,,,0.00,Meteorologica,2013-01-13 08:44:00,
2013-01-13 03:49:00,63.2,63.2,30.00,SSW,197,4.7,5.6,100,0.00,,,0.00,Meteorologica,2013-01-13 08:49:00,
2013-01-13 03:54:00,63.2,63.2,30.00,SE,145,4.7,9.5,100,0.00,,,0.00,Meteorologica,2013-01-13 08:54:00,
2013-01-13 03:59:00,63.2,63.2,30.00,SSW,200,2.7,7.9,100,0.00,,,0.00,Meteorologica,2013-01-13 08:59:00,
2013-01-13 04:04:00,63.1,63.1,30.01,South,183,6.5,8.4,100,0.00,,,0.00,Meteorologica,2013-01-13 09:04:00,
2013-01-13 04:09:00,63.3,63.3,30.00,South,187,3.8,13.1,100,0.00,,,0.00,Meteorologica,2013-01-13 09:09:00,
2013-01-13 04:14:00,63.2,63.2,30.00,SSW,200,5.3,8.9,100,0.00,,,0.00,Meteorologica,2013-01-13 09:14:00,
2013-01-13 04:19:00,63.1,63.1,30.00,ESE,110,4.4,8.8,100,0.00,,,0.00,Meteorologica,2013-01-13 09:19:00,
2013-01-13 04:24:00,63.0,63.0,30.00,South,171,5.3,11.7,100,0.00,,,0.00,Meteorologica,2013-01-13 09:24:00,
2013-01-13 04:29:00,63.0,63.0,29.99,SSW,197,3.5,8.6,100,0.00,,,0.00,Meteorologica,2013-01-13 09:29:00,
2013-01-13 04:34:00,62.9,62.9,29.99,SSE,168,2.8,8.5,100,0.00,,,0.00,Meteorologica,2013-01-13 09:34:00,
2013-01-13 04:39:00,62.9,62.9,29.99,SSE,160,2.5,6.9,100,0.00,,,0.00,Meteorologica,2013-01-13 09:39:00,
2013-01-13 04:44:00,62.7,62.7,29.99,SE,143,2.1,7.1,100,0.00,,,0.00,Meteorologica,2013-01-13 09:44:00,
2013-01-13 04:49:00,62.7,62.7,29.99,South,186,4.3,7.9,100,0.00,,,0.00,Meteorologica,2013-01-13 09:49:00,
2013-01-13 04:54:00,62.6,62.6,29.99,South,183,3.1,8.7,100,0.00,,,0.00,Meteorologica,2013-01-13 09:54:00,
2013-01-13 04:59:00,62.6,62.6,30.00,SSW,203,5.4,8.6,100,0.00,,,0.00,Meteorologica,2013-01-13 09:59:00,
2013-01-13 05:04:00,62.4,62.4,30.00,SSW,199,2.2,9.7,100,0.00,,,0.00,Meteorologica,2013-01-13 10:04:00,
2013-01-13 05:09:00,62.4,62.4,30.00,South,188,3.5,8.2,100,0.00,,,0.00,Meteorologica,2013-01-13 10:09:00,
2013-01-13 05:14:00,62.4,62.4,30.01,South,176,5.6,8.4,100,0.00,,,0.00,Meteorologica,2013-01-13 10:14:00,
2013-01-13 05:19:00,62.2,62.2,30.00,SSW,199,4.5,8.6,100,0.00,,,0.00,Meteorologica,2013-01-13 10:19:00,
2013-01-13 05:24:00,62.4,62.4,30.00,South,185,7.3,12.3,100,0.00,,,0.00,Meteorologica,2013-01-13 10:24:00,
2013-01-13 05:29:00,62.2,62.2,30.00,SW,214,4.6,8.1,100,0.00,,,0.00,Meteorologica,2013-01-13 10:29:00,
2013-01-13 05:34:00,62.2,62.2,30.00,SSW,205,6.3,10.0,100,0.00,,,0.00,Meteorologica,2013-01-13 10:34:00,
2013-01-13 05:40:00,62.2,62.2,30.01,SSW,198,3.0,5.8,100,0.00,,,0.00,Meteorologica,2013-01-13 10:40:00,
2013-01-13 05:45:00,62.2,62.2,30.01,SSW,199,3.3,6.8,100,0.00,,,0.00,Meteorologica,2013-01-13 10:45:00,
2013-01-13 05:50:00,62.2,62.2,30.01,SSW,203,2.3,6.9,100,0.00,,,0.00,Meteorologica,2013-01-13 10:50:00,
2013-01-13 05:55:00,62.3,62.3,30.02,South,175,5.2,7.9,100,0.00,,,0.00,Meteorologica,2013-01-13 10:55:00,
2013-01-13 06:00:00,62.3,62.3,30.02,South,181,1.4,7.0,100,0.00,,,0.00,Meteorologica,2013-01-13 11:00:00,
2013-01-13 06:05:00,62.3,62.3,30.02,SSW,192,5.6,6.4,100,0.00,,,0.00,Meteorologica,2013-01-13 11:05:00,
2013-01-13 06:10:00,62.5,62.5,30.02,SSW,195,1.9,11.5,100,0.00,,,0.00,Meteorologica,2013-01-13 11:10:00,
2013-01-13 06:15:00,62.6,62.6,30.02,South,184,5.3,9.2,100,0.00,,,0.00,Meteorologica,2013-01-13 11:15:00,
2013-01-13 06:20:00,62.5,62.5,30.03,SSE,165,3.3,9.0,100,0.00,,,0.00,Meteorologica,2013-01-13 11:20:00,
2013-01-13 06:25:00,62.6,62.6,30.03,South,172,2.8,12.3,100,0.00,,,0.00,Meteorologica,2013-01-13 11:25:00,
2013-01-13 06:30:00,62.7,62.7,30.03,SSW,200,3.9,7.4,100,0.00,,,0.00,Meteorologica,2013-01-13 11:30:00,
2013-01-13 06:35:00,62.6,62.6,30.03,SSW,197,6.9,10.7,100,0.00,,,0.00,Meteorologica,2013-01-13 11:35:00,
2013-01-13 06:40:00,62.8,62.8,30.03,SSE,166,1.7,8.1,100,0.00,,,0.00,Meteorologica,2013-01-13 11:40:00,
2013-01-13 06:45:00,62.9,62.9,30.04,South,189,2.2,6.4,100,0.00,,,0.00,Meteorologica,2013-01-13 11:45:00,
2013-01-13 06:50:00,62.8,62.8,30.03,SSE,161,2.1,4.3,100,0.00,,,0.00,Meteorologica,2013-01-13 11:50:00,
2013-01-13 06:55:00,62.9,62.9,30.04,South,180,3.8,11.5,100,0.00,,,0.00,Meteorologica,2013-01-13 11:55:00,
2013-01-13 07:00:00,62.9,62.9,30.04,SSE,165,2.6,7.4,100,0.00,,,0.00,Meteorologica,2013-01-13 12:00:00,
2013-01-13 07:05:00,63.0,63.0,30.04,South,183,4.4,11.6,100,0.00,,,0.00,Meteorologica,2013-01-13 12:05:00,
2013-01-13 07:10:00,63.0,63.0,30.04,South,179,2.9,9.1,100,0.00,,,0.00,Meteorologica,2013-01-13 12:10:00,
2013-01-13 07:15:00,63.2,63.2,30.05,SE,128,1.5,7.1,100,0.00,,,0.00,Meteorologica,2013-01-13 12:15:00,
2013-01-13 07:20:00,63.3,63.3,30.05,South,175,3.1,4.7,100,0.00,,,0.00,Meteorologica,2013-01-13 12:20:00,
2013-01-13 07:25:00,63.2,63.2,30.05,SSW,203,3.4,7.8,100,0.00,,,0.00,Meteorologica,2013-01-13 12:25:00,
2013-01-13 07:30:00,63.3,63.3,30.05,SSE,149,2.0,8.1,100,0.00,,,0.00,Meteorologica,2013-01-13 12:30:00,
2013-01-13 07:35:00,63.3,63.3,30.05,South,189,3.8,8.9,100,0.00,,,0.00,Meteorologica,2013-01-13 12:35:00,
2013-01-13 07:40:00,63.4,63.4,30.05,South,183,4.2,8.9,100,0.00,,,0.00,Meteorologica,2013-01-13 12:40:00,
2013-01-13 07:45:00,63.3,63.3,30.06,South,182,3.5,7.6,100,0.00,,,0.00,Meteorologica,2013-01-13 12:45:00,
2013-01-13 07:50:00,63.3,63.3,30.06,SW,217,0.7,7.7,100,0.00,,,0.00,Meteorologica,2013-01-13 12:50:00,
2013-01-13 07:55:00,63.2,63.2,30.06,SSW,203,4.2,6.8,100,0.00,,,0.00,Meteorologica,2013-01-13 12:55:00,
2013-01-13 08:00:00,63.4,63.4,30.06,South,173,3.3,6.9,100,0.00,,,0.00,Meteorologica,2013-01-13 13:00:00,
2013-01-13 08:05:00,63.2,63.2,30.06,ESE,108,1.7,8.1,100,0.00,,,0.00,Meteorologica,2013-01-13 13:05:00,
2013-01-13 08:10:00,63.3,63.3,30.06,SSW,193,3.2,7.2,100,0.00,,,0.00,Meteorologica,2013-01-13 13:10:00,
2013-01-13 08:15:00,63.3,63.3,30.06,South,178,2.2,8.0,100,0.00,,,0.00,Meteorologica,2013-01-13 13:15:00,
2013-01-13 08:20:00,63.2,63.2,30.06,South,184,2.6,7.4,100,0.00,,,0.00,Meteorologica,2013-01-13 13:20:00,
2013-01-13 08:25:00,63.0,63.0,30.06,SSE,159,2.4,5.3,100,0.00,,,0.00,Meteorologica,2013-01-13 13:25:00,
2013-01-13 08:30:00,63.1,63.1,30.06,SSE,160,1.4,5.3,100,0.00,,,0.00,Meteorologica,2013-01-13 13:30:00,
2013-01-13 08:35:00,63.1,63.1,30.06,SSW,200,3.5,5.2,100,0.00,,,0.00,Meteorologica,2013-01-13 13:35:00,
2013-01-13 08:40:00,63.0,63.0,30.06,SSE,167,3.0,7.5,100,0.00,,,0.00,Meteorologica,2013-01-13 13:40:00,
2013-01-13 08:45:00,63.1,63.1,30.06,SSW,206,3.9,7.4,100,0.00,,,0.00,Meteorologica,2013-01-13 13:45:00,
2013-01-13 08:50:00,63.0,63.0,30.06,South,170,1.5,13.2,100,0.00,,,0.00,Meteorologica,2013-01-13 13:50:00,
2013-01-13 08:55:00,63.0,63.0,30.06,SSE,162,3.6,4.8,100,0.00,,,0.00,Meteorologica,2013-01-13 13:55:00,
2013-01-13 09:00:00,62.9,62.9,30.06,SW,214,3.3,8.7,100,0.00,,,0.00,Meteorologica,2013-01-13 14:00:00,
2013-01-13 09:05:00,63.0,63.0,30.06,SSW,209,3.7,9.2,100,0.00,,,0.00,Meteorologica,2013-01-13 14:05:00,
2013-01-13 09:10:00,63.2,63.2,30.06,SSW,204,3.7,10.9,100,0.00,,,0.00,Meteorologica,2013-01-13 14:10:00,
2013-01-13 09:15:00,63.2,63.2,30.06,SSE,160,2.8,8.9,100,0.00,,,0.00,Meteorologica,2013-01-13 14:15:00,
2013-01-13 09:20:00,63.3,63.3,30.06,SSW,194,4.3,10.3,100,0.00,,,0.00,Meteorologica,2013-01-13 14:20:00,
2013-01-13 09:25:00,63.3,63.3,30.06,South,187,3.6,8.1,100,0.00,,,0.00,Meteorologica,2013-01-13 14:25:00,
2013-01-13 09:30:00,63.4,63.4,30.06,SSW,207,2.3,6.2,100,0.00,,,0.00,Meteorologica,2013-01-13 14:30:00,
2013-01-13 09:35:00,63.5,63.5,30.06,South,186,2.8,8.2,100,0.00,,,0.00,Meteorologica,2013-01-13 14:35:00,
2013-01-13 09:41:00,63.4,63.4,30.06,SSE,149,4.1,6.5,100,0.00,,,0.00,Meteorologica,2013-01-13 14:41:00,
2013-01-13 09:46:00,63.5,63.5,30.06,South,182,2.3,8.4,100,0.00,,,0.00,Meteorologica,2013-01-13 14:46:00,
2013-01-13 09:51:00,63.4,63.4,30.06,SSW,201,4.5,8.7,100,0.00,,,0.00,Meteorologica,2013-01-13 14:51:00,
2013-01-13 09:56:00,63.5,63.5,30.06,SSE,158,3.8,8.1,100,0.00,,,0.00,Meteorologica,2013-01-13 14:56:00,
2013-01-13 10:00:00,63.6,63.6,30.06,SW,215,5.0,10.3,100,0.00,,,0.00,Meteorologica,2013-01-13 15:00:00,
2013-01-13 10:05:00,63.7,63.7,30.06,South,173,4.5,8.9,100,0.00,,,0.00,Meteorologica,2013-01-13 15:05:00,
2013-01-13 10:11:00,63.7,63.7,30.06,South,191,5.8,7.6,100,0.00,,,0.00,Meteorologica,2013-01-13 15:11:00,
2013-01-13 10:16:00,63.9,63.9,30.06,South,189,6.9,10.1,100,0.00,,,0.00,Meteorologica,2013-01-13 15:16:00,
2013-01-13 10:21:00,63.9,63.9,30.06,SSW,196,3.3,9.8,100,0.00,,,0.00,Meteorologica,2013-01-13 15:21:00,
2013-01-13 10:26:00,63.9,63.9,30.06,SSW,199,4.6,9.4,100,0.00,,,0.00,Meteorologica,2013-01-13 15:26:00,
2013-01-13 10:31:00,64.1,64.1,30.06,SSW,197,5.7,14.9,100,0.00,,,0.00,Meteorologica,2013-01-13 15:31:00,
2013-01-13 10:36:00,64.1,64.1,30.06,SSE,160,5.3,12.2,100,0.00,,,0.00,Meteorologica,2013-01-13 15:36:00,
2013-01-13 10:41:00,64.2,64.2,30.06,South,189,4.5,12.1,100,0.00,,,0.00,Meteorologica,2013-01-13 15:41:00,
2013-01-13 10:46:00,64.4,64.4,30.06,SW,226,4.5,11.8,100,0.00,,,0.00,Meteorologica,2013-01-13 15:46:00,
2013-01-13 10:51:00,64.7,64.7,30.06,South,174,5.4,9.7,100,0.00,,,0.00,Meteorologica,2013-01-13 15:51:00,
2013-01-13 10:56:00,64.7,64.7,30.06,SSE,150,2.8,9.4,100,0.00,,,0.00,Meteorologica,2013-01-13 15:56:00,
2013-01-13 11:01:00,64.8,64.8,30.05,South,175,3.9,15.6,100,0.00,,,0.00,Meteorologica,2013-01-13 16:01:00,
2013-01-13 11:06:00,64.9,64.9,30.05,SSW,201,3.2,15.0,100,0.00,,,0.00,Meteorologica,2013-01-13 16:06:00,
2013-01-13 11:11:00,65.1,65.1,30.05,SSW,206,7.1,15.3,100,0.00,,,0.00,Meteorologica,2013-01-13 16:11:00,
2013-01-13 11:16:00,65.1,65.1,30.05,SSW,197,4.3,12.3,100,0.00,,,0.00,Meteorologica,2013-01-13 16:16:00,
2013-01-13 11:21:00,65.1,65.1,30.05,SSW,205,3.8,15.4,100,0.00,,,0.00,Meteorologica,2013-01-13 16:21:00,
2013-01-13 11:26:00,65.3,65.3,30.04,SSW,203,9.3,13.5,100,0.00,,,0.00,Meteorologica,2013-01-13 16:26:00,
2013-01-13 11:31:00,65.3,65.3,30.04,SSW,204,3.6,13.8,100,0.00,,,0.00,Meteorologica,2013-01-13 16:31:00,
2013-01-13 11:36:00,65.3,65.3,30.04,South,176,5.6,9.4,100,0.00,,,0.00,Meteorologica,2013-01-13 16:36:00,
2013-01-13 11:41:00,65.4,65.4,30.04,East,101,4.8,12.0,100,0.00,,,0.00,Meteorologica,2013-01-13 16:41:00,
2013-01-13 11:46:00,65.5,65.5,30.03,South,174,4.4,11.6,100,0.00,,,0.00,Meteorologica,2013-01-13 16:46:00,
2013-01-13 11:51:00,65.5,65.5,30.03,SSW,207,4.0,10.8,100,0.00,,,0.00,Meteorologica,2013-01-13 16:51:00,
2013-01-13 11:56:00,65.5,65.5,30.03,SSE,167,4.7,16.8,100,0.00,,,0.00,Meteorologica,2013-01-13 16:56:00,
2013-01-13 12:01:00,65.6,65.6,30.03,SSW,213,4.2,10.8,100,0.00,,,0.00,Meteorologica,2013-01-13 17:01:00,
2013-01-13 12:06:00,65.7,65.7,30.03,South,191,4.1,9.5,100,0.00,,,0.00,Meteorologica,2013-01-13 17:06:00,
2013-01-13 12:11:00,65.7,65.7,30.02,SE,140,4.8,10.7,100,0.00,,,0.00,Meteorologica,2013-01-13 17:11:00,
2013-01-13 12:16:00,65.7,65.7,30.02,SSW,207,8.4,11.3,100,0.00,,,0.00,Meteorologica,2013-01-13 17:16:00,
2013-01-13 12:21:00,65.9,65.9,30.01,South,191,7.6,15.1,100,0.00,,,0.00,Meteorologica,2013-01-13 17:21:00,
2013-01-13 12:26:00,65.9,65.9,30.01,SSE,155,3.7,16.7,100,0.00,,,0.00,Meteorologica,2013-01-13 17:26:00,
2013-01-13 12:31:00,65.8,65.8,30.01,SSW,203,6.4,15.4,100,0.00,,,0.00,Meteorologica,2013-01-13 17:31:00,
2013-01-13 12:36:00,65.8,65.8,30.01,SSW,197,10.0,11.6,100,0.00,,,0.00,Meteorologica,2013-01-13 17:36:00,
2013-01-13 12:41:00,65.7,65.7,30.01,NE,46,6.2,17.0,100,0.00,,,0.00,Meteorologica,2013-01-13 17:41:00,
2013-01-13 12:46:00,65.6,65.6,30.01,South,184,8.5,9.4,100,0.00,,,0.00,Meteorologica,2013-01-13 17:46:00,
2013-01-13 12:51:00,65.2,65.2,30.00,SSW,203,5.5,14.1,100,0.01,,,0.01,Meteorologica,2013-01-13 17:51:00,
2013-01-13 12:56:00,65.4,65.4,30.00,South,180,4.2,14.3,100,0.01,,,0.01,Meteorologica,2013-01-13 17:56:00,
2013-01-13 13:01:00,65.1,65.1,30.00,SW,220,3.2,13.3,100,0.01,,,0.01,Meteorologica,2013-01-13 18:01:00,
2013-01-13 13:06:00,65.0,65.0,30.00,SSW,204,5.8,11.2,100,0.02,,,0.02,Meteorologica,2013-01-13 18:06:00,
2013-01-13 13:11:00,65.0,65.0,29.99,South,186,5.3,11.2,100,0.02,,,0.02,Meteorologica,2013-01-13 18:11:00,
2013-01-13 13:16:00,64.8,64.8,29.99,South,189,5.2,10.8,100,0.02,,,0.02,Meteorologica,2013-01-13 18:16:00,
2013-01-13 13:21:00,64.8,64.8,29.99,South,185,6.2,11.1,100,0.02,,,0.02,Meteorologica,2013-01-13 18:21:00,
2013-01-13 13:26:00,64.7,64.7,29.99,SSW,193,4.7,12.9,100,0.02,,,0.02,Meteorologica,2013-01-13 18:26:00,
2013-01-13 13:31:00,64.6,64.6,29.99,SSW,202,7.7,14.6,100,0.02,,,0.02,Meteorologica,2013-01-13 18:31:00,
2013-01-13 13:36:00,64.9,64.9,29.99,South,174,4.0,15.3,100,0.02,,,0.02,Meteorologica,2013-01-13 18:36:00,
2013-01-13 13:41:00,64.9,64.9,29.99,SSE,158,6.5,14.6,100,0.02,,,0.02,Meteorologica,2013-01-13 18:41:00,
2013-01-13 13:46:00,64.8,64.8,29.99,SSW,203,3.6,9.9,100,0.01,,,0.02,Meteorologica,2013-01-13 18:46:00,
2013-01-13 13:51:00,64.8,64.8,29.98,SSW,211,7.0,9.1,100,0.01,,,0.02,Meteorologica,2013-01-13 18:51:00,
2013-01-13 13:56:00,65.0,65.0,29.99,SSW,193,5.1,9.6,100,0.01,,,0.02,Meteorologica,2013-01-13 18:56:00,
2013-01-13 14:02:00,64.9,64.9,29.98,SSW,192,3.6,8.6,100,0.01,,,0.02,Meteorologica,2013-01-13 19:02:00,
2013-01-13 14:06:00,65.1,65.1,29.99,SSW,207,4.4,9.4,100,0.00,,,0.02,Meteorologica,2013-01-13 19:06:00,
2013-01-13 14:12:00,65.1,65.1,29.99,South,188,4.1,9.6,100,0.00,,,0.02,Meteorologica,2013-01-13 19:12:00,
2013-01-13 14:17:00,65.0,65.0,29.99,South,175,5.4,7.3,100,0.00,,,0.02,Meteorologica,2013-01-13 19:17:00,
2013-01-13 14:22:00,65.0,65.0,29.98,SW,234,6.0,8.4,100,0.00,,,0.02,Meteorologica,2013-01-13 19:22:00,
2013-01-13 14:27:00,65.2,65.2,29.98,SSW,200,5.6,9.8,100,0.00,,,0.02,Meteorologica,2013-01-13 19:27:00,
2013-01-13 14:32:00,65.6,65.6,29.98,SSW,198,6.6,9.1,100,0.00,,,0.02,Meteorologica,2013-01-13 19:32:00,
2013-01-13 14:37:00,65.5,65.5,29.98,SSE,156,4.6,13.2,100,0.00,,,0.02,Meteorologica,2013-01-13 19:37:00,
2013-01-13 14:42:00,65.7,65.7,29.98,South,173,5.0,9.7,100,0.00,,,0.02,Meteorologica,2013-01-13 19:42:00,
2013-01-13 14:47:00,65.8,65.8,29.98,SSW,207,6.2,9.8,100,0.00,,,0.02,Meteorologica,2013-01-13 19:47:00,
2013-01-13 14:52:00,66.0,66.0,29.98,SSW,192,5.0,11.6,100,0.00,,,0.02,Meteorologica,2013-01-13 19:52:00,
2013-01-13 14:57:00,66.2,66.2,29.98,South,183,2.9,8.7,100,0.00,,,0.02,Meteorologica,2013-01-13 19:57:00,
2013-01-13 15:02:00,66.3,66.3,29.98,South,173,8.3,10.8,100,0.00,,,0.02,Meteorologica,2013-01-13 20:02:00,
2013-01-13 15:07:00,66.4,66.4,29.98,South,175,4.4,12.8,100,0.00,,,0.02,Meteorologica,2013-01-13 20:07:00,
2013-01-13 15:12:00,66.7,66.7,29.98,South,182,5.3,12.2,100,0.00,,,0.02,Meteorologica,2013-01-13 20:12:00,
2013-01-13 15:17:00,66.8,66.8,29.98,SE,145,8.3,10.3,100,0.00,,,0.02,Meteorologica,2013-01-13 20:17:00,
2013-01-13 15:22:00,66.9,66.9,29.97,South,187,4.1,12.1,100,0.00,,,0.02,Meteorologica,2013-01-13 20:22:00,
2013-01-13 15:27:00,67.2,67.2,29.97,ESE,104,7.3,11.7,100,0.00,,,0.02,Meteorologica,2013-01-13 20:27:00,
2013-01-13 15:32:00,67.4,67.4,29.96,SE,146,3.7,14.9,100,0.00,,,0.02,Meteorologica,2013-01-13 20:32:00,
2013-01-13 15:37:00,67.7,67.7,29.97,SSW,206,4.9,13.6,100,0.00,,,0.02,Meteorologica,2013-01-13 20:37:00,
2013-01-13 15:42:00,67.8,67.8,29.96,SE,140,4.0,18.7,100,0.00,,,0.02,Meteorologica,2013-01-13 20:42:00,
2013-01-13 15:47:00,68.0,67.1,29.97,SW,217,3.4,9.7,97,0.00,,,0.02,Meteorologica,2013-01-13 20:47:00,
2013-01-13 15:52:00,68.2,66.6,29.97,SSW,208,5.1,13.8,94,0.00,,,0.02,Meteorologica,2013-01-13 20:52:00,
2013-01-13 15:57:00,68.2,65.9,29.97,South,183,6.5,10.5,92,0.00,,,0.02,Meteorologica,2013-01-13 20:57:00,
2013-01-13 16:02:00,68.2,66.0,29.97,SSW,192,6.4,10.0,92,0.00,,,0.02,Meteorologica,2013-01-13 21:02:00,
2013-01-13 16:07:00,68.3,66.0,29.97,ESE,118,3.0,13.7,92,0.00,,,0.02,Meteorologica,2013-01-13 21:07:00,
2013-01-13 16:12:00,68.3,65.6,29.97,South,171,7.0,8.7,91,0.00,,,0.02,Meteorologica,2013-01-13 21:12:00,
2013-01-13 16:17:00,68.3,64.8,29.97,South,179,4.0,14.4,88,0.00,,,0.02,Meteorologica,2013-01-13 21:17:00,
2013-01-13 16:22:00,68.2,64.8,29.97,SSE,149,5.0,8.9,89,0.00,,,0.02,Meteorologica,2013-01-13 21:22:00,
2013-01-13 16:27:00,68.4,64.6,29.98,SSW,196,5.7,16.7,87,0.00,,,0.02,Meteorologica,2013-01-13 21:27:00,
2013-01-13 16:32:00,68.3,64.6,29.98,South,191,4.0,9.9,87,0.00,,,0.02,Meteorologica,2013-01-13 21:32:00,
2013-01-13 16:37:00,68.3,64.5,29.98,South,188,4.9,8.9,87,0.00,,,0.02,Meteorologica,2013-01-13 21:37:00,
2013-01-13 16:42:00,68.1,63.7,29.98,SW,234,0.4,13.3,85,0.00,,,0.02,Meteorologica,2013-01-13 21:42:00,
2013-01-13 16:47:00,68.0,63.4,29.98,SSW,197,6.5,14.0,85,0.00,,,0.02,Meteorologica,2013-01-13 21:47:00,
2013-01-13 16:52:00,68.0,63.3,29.98,SSW,201,7.5,14.4,84,0.00,,,0.02,Meteorologica,2013-01-13 21:52:00,
2013-01-13 16:57:00,68.1,63.4,29.98,SSE,166,5.2,13.5,84,0.00,,,0.02,Meteorologica,2013-01-13 21:57:00,
2013-01-13 17:02:00,68.0,63.1,29.97,South,188,8.2,12.0,84,0.00,,,0.02,Meteorologica,2013-01-13 22:02:00,
2013-01-13 17:07:00,68.0,63.1,29.97,South,170,7.5,12.0,84,0.00,,,0.02,Meteorologica,2013-01-13 22:07:00,
2013-01-13 17:12:00,67.8,62.6,29.97,South,173,4.7,10.8,83,0.00,,,0.02,Meteorologica,2013-01-13 22:12:00,
2013-01-13 17:17:00,67.8,62.9,29.97,South,179,3.8,9.8,84,0.00,,,0.02,Meteorologica,2013-01-13 22:17:00,
2013-01-13 17:22:00,67.8,62.7,29.97,SSW,208,6.1,11.2,83,0.00,,,0.02,Meteorologica,2013-01-13 22:22:00,
2013-01-13 17:27:00,67.8,62.8,29.97,SSE,152,6.0,9.6,84,0.00,,,0.02,Meteorologica,2013-01-13 22:27:00,
2013-01-13 17:32:00,67.7,62.7,29.97,SSW,198,6.3,9.4,83,0.00,,,0.02,Meteorologica,2013-01-13 22:32:00,
2013-01-13 17:37:00,67.7,62.8,29.97,SSW,195,4.5,10.5,84,0.00,,,0.02,Meteorologica,2013-01-13 22:37:00,
2013-01-13 17:42:00,67.6,62.6,29.97,South,177,4.0,10.7,83,0.00,,,0.02,Meteorologica,2013-01-13 22:42:00,
2013-01-13 17:47:00,67.4,62.4,29.97,SSW,193,8.6,11.7,83,0.00,,,0.02,Meteorologica,2013-01-13 22:47:00,
2013-01-13 17:52:00,67.8,62.7,29.97,SSE,155,5.9,11.7,83,0.00,,,0.02,Meteorologica,2013-01-13 22:52:00,
2013-01-13 17:57:00,67.4,62.3,29.97,SSW,203,7.0,10.1,83,0.00,,,0.02,Meteorologica,2013-01-13 22:57:00,
2013-01-13 18:02:00,67.4,62.4,29.97,SSW,201,5.6,10.9,83,0.00,,,0.02,Meteorologica,2013-01-13 23:02:00,
2013-01-13 18:07:00,67.4,62.4,29.97,SSE,166,6.8,10.5,84,0.00,,,0.02,Meteorologica,2013-01-13 23:07:00,
2013-01-13 18:12:00,67.4,62.5,29.97,SSW,212,4.6,12.0,84,0.00,,,0.02,Meteorologica,2013-01-13 23:12:00,
2013-01-13 18:17:00,67.4,62.7,29.97,SSW,196,3.1,10.7,84,0.00,,,0.02,Meteorologica,2013-01-13 23:17:00,
2013-01-13 18:22:00,67.3,62.9,29.97,South,188,3.6,11.2,85,0.00,,,0.02,Meteorologica,2013-01-13 23:22:00,
2013-01-13 18:27:00,67.3,63.3,29.97,SSW,198,6.6,8.6,87,0.00,,,0.02,Meteorologica,2013-01-13 23:27:00,
2013-01-13 18:33:00,67.0,63.4,29.98,SSW,197,5.8,11.8,88,0.00,,,0.02,Meteorologica,2013-01-13 23:33:00,
2013-01-13 18:38:00,67.0,64.4,29.98,South,188,3.8,9.7,91,0.00,,,0.02,Meteorologica,2013-01-13 23:38:00,
2013-01-13 18:43:00,66.9,64.9,29.98,SSW,194,5.2,9.1,93,0.00,,,0.02,Meteorologica,2013-01-13 23:43:00,
2013-01-13 18:48:00,66.7,65.3,29.98,SSW,206,3.8,10.5,95,0.00,,,0.02,Meteorologica,2013-01-13 23:48:00,
2013-01-13 18:53:00,66.4,66.2,29.98,South,172,3.4,7.9,99,0.01,,,0.03,Meteorologica,2013-01-13 23:53:00,
2013-01-13 18:58:00,66.2,66.2,29.98,SSW,202,2.4,8.4,100,0.02,,,0.04,Meteorologica,2013-01-13 23:58:00,
2013-01-13 19:03:00,65.9,65.9,29.99,SSW,213,2.3,6.3,100,0.05,,,0.07,Meteorologica,2013-01-14 00:03:00,
2013-01-13 19:08:00,65.7,65.7,29.99,SSW,196,1.7,4.1,100,0.08,,,0.10,Meteorologica,2013-01-14 00:08:00,
2013-01-13 19:13:00,65.6,65.6,30.00,South,189,2.4,4.0,100,0.12,,,0.14,Meteorologica,2013-01-14 00:13:00,
2013-01-13 19:18:00,65.3,65.3,30.00,South,171,1.0,4.7,100,0.17,,,0.19,Meteorologica,2013-01-14 00:18:00,
2013-01-13 19:23:00,64.9,64.9,30.00,South,173,2.4,3.1,100,0.21,,,0.23,Meteorologica,2013-01-14 00:23:00,
2013-01-13 19:28:00,64.7,64.7,29.99,SSW,203,1.6,5.0,100,0.24,,,0.26,Meteorologica,2013-01-14 00:28:00,
2013-01-13 19:33:00,64.5,64.5,29.99,SSW,200,2.0,7.5,100,0.26,,,0.28,Meteorologica,2013-01-14 00:33:00,
2013-01-13 19:38:00,64.2,64.2,29.98,South,188,2.6,5.3,100,0.28,,,0.30,Meteorologica,2013-01-14 00:38:00,
2013-01-13 19:43:00,64.1,64.1,29.99,SSW,199,4.3,7.1,100,0.31,,,0.33,Meteorologica,2013-01-14 00:43:00,
2013-01-13 19:48:00,63.9,63.9,29.98,SSW,201,1.6,7.0,100,0.33,,,0.36,Meteorologica,2013-01-14 00:48:00,
2013-01-13 19:53:00,64.0,64.0,29.99,WSW,252,1.9,6.0,100,0.36,,,0.39,Meteorologica,2013-01-14 00:53:00,
2013-01-13 19:58:00,63.8,63.8,29.99,SSW,210,0.0,6.8,100,0.40,,,0.45,Meteorologica,2013-01-14 00:58:00,
2013-01-13 20:03:00,63.8,63.8,29.99,SSW,210,0.0,0.0,100,0.45,,,0.53,Meteorologica,2013-01-14 01:03:00,
2013-01-13 20:08:00,63.6,63.6,29.99,NNW,335,1.6,0.0,100,0.45,,,0.56,Meteorologica,2013-01-14 01:08:00,
2013-01-13 20:13:00,63.4,63.4,30.00,NNW,342,3.8,6.9,100,0.44,,,0.59,Meteorologica,2013-01-14 01:13:00,
2013-01-13 20:18:00,63.2,63.2,30.02,NW,317,2.6,7.1,100,0.70,,,0.90,Meteorologica,2013-01-14 01:18:00,
2013-01-13 20:23:00,63.0,63.0,30.02,SSW,212,3.2,7.1,100,1.11,,,1.35,Meteorologica,2013-01-14 01:23:00,
2013-01-13 20:28:00,62.8,62.8,30.01,NNE,14,0.9,5.8,100,1.17,,,1.43,Meteorologica,2013-01-14 01:28:00,
2013-01-13 20:33:00,62.8,62.8,30.01,SSE,153,0.3,5.5,100,1.26,,,1.54,Meteorologica,2013-01-14 01:33:00,
2013-01-13 20:38:00,63.0,63.0,30.01,SW,218,1.6,6.0,100,1.28,,,1.59,Meteorologica,2013-01-14 01:38:00,
2013-01-13 20:43:00,62.8,62.8,30.01,South,169,1.6,3.4,100,1.29,,,1.62,Meteorologica,2013-01-14 01:43:00,
2013-01-13 20:48:00,63.0,63.0,30.01,South,169,0.0,3.5,100,1.26,,,1.63,Meteorologica,2013-01-14 01:48:00,
2013-01-13 20:53:00,63.0,63.0,30.02,South,169,0.0,0.0,100,1.25,,,1.65,Meteorologica,2013-01-14 01:53:00,
2013-01-13 20:58:00,62.8,62.8,30.03,SSW,213,0.1,5.1,100,1.16,,,1.68,Meteorologica,2013-01-14 01:58:00,
2013-01-13 21:03:00,62.9,62.9,30.03,SE,145,0.0,2.7,100,1.16,,,1.71,Meteorologica,2013-01-14 02:03:00,
2013-01-13 21:08:00,62.6,62.6,30.03,South,172,1.7,2.2,100,1.17,,,1.74,Meteorologica,2013-01-14 02:08:00,
2013-01-13 21:13:00,62.7,62.7,30.03,SSW,193,0.0,4.1,100,1.13,,,1.76,Meteorologica,2013-01-14 02:13:00,
2013-01-13 21:18:00,62.6,62.6,30.03,South,190,2.0,0.0,100,0.62,,,1.78,Meteorologica,2013-01-14 02:18:00,
2013-01-13 21:23:00,62.5,62.5,30.03,South,186,0.0,4.6,100,0.43,,,1.80,Meteorologica,2013-01-14 02:23:00,
2013-01-13 21:28:00,62.6,62.6,30.03,SSW,213,0.0,5.4,100,0.33,,,1.81,Meteorologica,2013-01-14 02:28:00,
2013-01-13 21:33:00,62.4,62.4,30.03,SSE,160,2.5,4.7,100,0.26,,,1.83,Meteorologica,2013-01-14 02:33:00,
2013-01-13 21:38:00,62.3,62.3,30.03,SSE,160,0.0,6.3,100,0.26,,,1.86,Meteorologica,2013-01-14 02:38:00,
2013-01-13 21:44:00,62.3,62.3,30.03,SSW,197,0.0,2.8,100,0.25,,,1.88,Meteorologica,2013-01-14 02:44:00,
2013-01-13 21:49:00,62.2,62.2,30.03,SSW,197,0.0,0.0,100,0.25,,,1.90,Meteorologica,2013-01-14 02:49:00,
2013-01-13 21:54:00,62.1,62.1,30.03,SSW,197,0.0,0.0,100,0.26,,,1.93,Meteorologica,2013-01-14 02:54:00,
2013-01-13 21:59:00,62.0,62.0,30.04,South,173,0.0,5.2,100,0.25,,,1.95,Meteorologica,2013-01-14 02:59:00,
2013-01-13 22:04:00,62.0,62.0,30.04,South,184,0.0,3.5,100,0.22,,,1.95,Meteorologica,2013-01-14 03:04:00,
2013-01-13 22:09:00,62.0,62.0,30.04,South,184,0.0,0.0,100,0.21,,,1.96,Meteorologica,2013-01-14 03:09:00,
2013-01-13 22:14:00,61.8,61.8,30.04,South,184,0.0,0.0,100,0.19,,,1.96,Meteorologica,2013-01-14 03:14:00,
2013-01-13 22:20:00,61.9,61.9,30.05,South,184,0.0,0.0,100,0.17,,,1.96,Meteorologica,2013-01-14 03:20:00,
2013-01-13 22:25:00,62.0,62.0,30.05,South,184,0.0,0.0,100,0.16,,,1.96,Meteorologica,2013-01-14 03:25:00,
2013-01-13 22:30:00,61.8,61.8,30.05,South,191,0.0,2.9,100,0.15,,,1.97,Meteorologica,2013-01-14 03:30:00,
2013-01-13 22:35:00,61.9,61.9,30.05,South,191,0.0,0.0,100,0.12,,,1.97,Meteorologica,2013-01-14 03:35:00,
2013-01-13 22:40:00,61.7,61.7,30.05,South,191,0.0,0.0,100,0.11,,,1.98,Meteorologica,2013-01-14 03:40:00,
2013-01-13 22:45:00,61.7,61.7,30.05,South,191,0.0,0.0,100,0.09,,,1.98,Meteorologica,2013-01-14 03:45:00,
2013-01-13 22:50:00,61.8,61.8,30.05,South,191,0.0,0.0,100,0.07,,,1.99,Meteorologica,2013-01-14 03:50:00,
2013-01-13 22:55:00,61.5,61.5,30.06,South,191,0.0,0.0,100,0.05,,,1.99,Meteorologica,2013-01-14 03:55:00,
2013-01-13 23:01:00,61.4,61.4,30.06,South,191,0.0,0.0,100,0.04,,,1.99,Meteorologica,2013-01-14 04:01:00,
2013-01-13 23:06:00,60.6,60.6,30.06,NNW,337,5.8,6.6,100,0.03,,,1.99,Meteorologica,2013-01-14 04:06:00,
2013-01-13 23:11:00,59.4,59.4,30.07,North,4,3.1,7.9,100,0.04,,,2.00,Meteorologica,2013-01-14 04:11:00,
2013-01-13 23:16:00,58.0,58.0,30.07,North,3,6.6,9.1,100,0.04,,,2.00,Meteorologica,2013-01-14 04:16:00,
2013-01-13 23:21:00,56.7,56.7,30.07,North,352,3.3,8.9,100,0.04,,,2.00,Meteorologica,2013-01-14 04:21:00,
2013-01-13 23:26:00,55.8,55.8,30.07,North,350,4.5,8.6,100,0.03,,,2.00,Meteorologica,2013-01-14 04:26:00,
2013-01-13 23:31:00,55.0,55.0,30.07,NNE,32,3.3,7.8,100,0.03,,,2.00,Meteorologica,2013-01-14 04:31:00,
2013-01-13 23:36:00,54.4,54.4,30.08,NNE,31,3.0,6.9,100,0.03,,,2.00,Meteorologica,2013-01-14 04:36:00,
2013-01-13 23:41:00,54.2,54.2,30.07,NE,38,1.4,6.0,100,0.02,,,2.00,Meteorologica,2013-01-14 04:41:00,
2013-01-13 23:46:00,53.9,53.9,30.08,SE,124,4.8,6.6,100,0.02,,,2.00,Meteorologica,2013-01-14 04:46:00,
2013-01-13 23:51:00,53.3,53.3,30.08,NNE,19,2.9,8.2,100,0.01,,,2.00,Meteorologica,2013-01-14 04:51:00,
2013-01-13 23:56:00,52.9,52.9,30.09,North,7,0.7,7.3,100,0.01,,,2.00,Meteorologica,2013-01-14 04:56:00,